Lexington, KY (40575)

1:40 PM EDT on April 30, 2017 (GMT -0400)
Sayre School | | Change Station

Elev 971 ft 38.05 °N, 84.49 °W | Updated 36 seconds ago

Mostly Cloudy
Mostly Cloudy
81.2 °F
Feels Like 83 °F
N
11.0
Wind Variable Wind from North
Gusts 11.0 mph

Today
High -- | Low -- °F
--% Chance of Precip.
Yesterday
High -- | Low -- °F
Precip. -- in
Pressure 29.95 in
Visibility 10.0 miles
Clouds Few 4200 ft
Mostly Cloudy 4900 ft
Heat Index 83 °F
Dew Point 64 °F
Humidity 56%
Rainfall 0.23 in
Snow Depth Not available.
6:42 AM 8:28 PM
Waxing Crescent, 24% visible
METAR KLEX 301654Z 20011KT 10SM FEW042 BKN049 27/19 A2998 RMK AO2 SLP142 T02670194
Pressure 29.95 in
Visibility 10.0 miles
Clouds Few 4200 ft
Mostly Cloudy 4900 ft
Heat Index 83 °F
Dew Point 64 °F
Humidity 56%
Rainfall 0.23 in
Snow Depth Not available.
6:42 AM 8:28 PM
Waxing Crescent, 24% visible
METAR KLEX 301654Z 20011KT 10SM FEW042 BKN049 27/19 A2998 RMK AO2 SLP142 T02670194

Get Severe Weather Alerts

Thanks for signing up!

Be on the lookout for a verification email in your inbox.

You'll start receiving the daily forecast at 8 AM.

×

10-Day Weather Forecast

Almanac

Astronomy

Apr. 30, 2017 Rise Set
Actual Time
Civil Twilight
Nautical Twilight
Astronomical Twilight
Moon
Length of Visible Light
Length of Day
Tomorrow will be .
, % of the Moon is Illuminated

Today's Extremes

State Highs State Lows

Community

WunderPhotos

WunderBlog® & News

Nearby

Air Quality

  Air Quality AQ Index Pollutant
Not available.

Snow Depth

Station Depth Elevation

Earthquake Activity

City Distance Mag. Time & Date
Minimum magnitude displayed is 2.5.

Coastal Water Temperatures

Place Temperature

Stations

Nearby Weather Stations

Station Location Temp. Windchill Dew Point Humidity Wind Precip. Elev Updated Type
                   

Watches & Warnings

There are currently no watches in effect.